sensor_id;sensor_type;location;lat;lon;timestamp;temperature;humidity
15834;DHT22;8017;50.812;4.934;2022-12-29T00:01:33;11.40;99.90
15834;DHT22;8017;50.812;4.934;2022-12-29T00:04:35;11.50;99.90
15834;DHT22;8017;50.812;4.934;2022-12-29T00:07:37;11.50;99.90
15834;DHT22;8017;50.812;4.934;2022-12-29T00:10:40;11.50;99.90
15834;DHT22;8017;50.812;4.934;2022-12-29T00:13:43;11.40;99.90
15834;DHT22;8017;50.812;4.934;2022-12-29T00:17:03;11.40;99.90
15834;DHT22;8017;50.812;4.934;2022-12-29T00:20:05;11.30;99.90
15834;DHT22;8017;50.812;4.934;2022-12-29T00:23:25;11.30;99.90
15834;DHT22;8017;50.812;4.934;2022-12-29T00:26:47;11.30;99.90
15834;DHT22;8017;50.812;4.934;2022-12-29T00:30:09;11.30;99.90
15834;DHT22;8017;50.812;4.934;2022-12-29T00:33:30;11.30;99.90
15834;DHT22;8017;50.812;4.934;2022-12-29T00:36:50;11.30;99.90
15834;DHT22;8017;50.812;4.934;2022-12-29T00:39:51;11.30;99.90
15834;DHT22;8017;50.812;4.934;2022-12-29T00:43:12;11.30;99.90
15834;DHT22;8017;50.812;4.934;2022-12-29T00:46:32;11.40;99.90
15834;DHT22;8017;50.812;4.934;2022-12-29T00:49:34;11.40;99.90
15834;DHT22;8017;50.812;4.934;2022-12-29T00:52:36;11.40;99.90
15834;DHT22;8017;50.812;4.934;2022-12-29T00:55:37;11.40;99.90
15834;DHT22;8017;50.812;4.934;2022-12-29T00:58:41;11.40;99.90
15834;DHT22;8017;50.812;4.934;2022-12-29T01:01:43;11.40;99.90
15834;DHT22;8017;50.812;4.934;2022-12-29T01:04:44;11.30;99.90
15834;DHT22;8017;50.812;4.934;2022-12-29T01:07:46;11.30;99.90
15834;DHT22;8017;50.812;4.934;2022-12-29T01:10:58;11.30;99.90
15834;DHT22;8017;50.812;4.934;2022-12-29T01:14:00;11.40;99.90
15834;DHT22;8017;50.812;4.934;2022-12-29T01:17:02;11.30;99.90
15834;DHT22;8017;50.812;4.934;2022-12-29T01:20:05;11.40;99.90
15834;DHT22;8017;50.812;4.934;2022-12-29T01:23:07;11.40;99.90
15834;DHT22;8017;50.812;4.934;2022-12-29T01:26:10;11.40;99.90
15834;DHT22;8017;50.812;4.934;2022-12-29T01:29:13;11.40;99.90
15834;DHT22;8017;50.812;4.934;2022-12-29T01:32:15;11.50;99.90
15834;DHT22;8017;50.812;4.934;2022-12-29T01:35:17;11.40;99.90
15834;DHT22;8017;50.812;4.934;2022-12-29T01:38:19;11.40;99.90
15834;DHT22;8017;50.812;4.934;2022-12-29T01:41:21;11.30;99.90
15834;DHT22;8017;50.812;4.934;2022-12-29T01:44:51;11.30;99.90
15834;DHT22;8017;50.812;4.934;2022-12-29T01:47:56;11.30;99.90
15834;DHT22;8017;50.812;4.934;2022-12-29T01:50:59;11.30;99.90
15834;DHT22;8017;50.812;4.934;2022-12-29T01:54:04;11.20;99.90
15834;DHT22;8017;50.812;4.934;2022-12-29T01:57:10;11.10;99.90
15834;DHT22;8017;50.812;4.934;2022-12-29T02:00:16;11.10;99.90
15834;DHT22;8017;50.812;4.934;2022-12-29T02:03:19;11.10;99.90
15834;DHT22;8017;50.812;4.934;2022-12-29T02:06:23;11.10;99.90
15834;DHT22;8017;50.812;4.934;2022-12-29T02:09:27;11.10;99.90
15834;DHT22;8017;50.812;4.934;2022-12-29T02:12:29;11.10;99.90
15834;DHT22;8017;50.812;4.934;2022-12-29T02:15:39;11.20;99.90
15834;DHT22;8017;50.812;4.934;2022-12-29T02:18:51;11.20;99.90
15834;DHT22;8017;50.812;4.934;2022-12-29T02:22:13;11.20;99.90
15834;DHT22;8017;50.812;4.934;2022-12-29T02:25:47;11.20;99.90
15834;DHT22;8017;50.812;4.934;2022-12-29T02:29:21;11.10;99.90
15834;DHT22;8017;50.812;4.934;2022-12-29T02:32:37;11.00;99.90
15834;DHT22;8017;50.812;4.934;2022-12-29T02:35:46;11.00;99.90
15834;DHT22;8017;50.812;4.934;2022-12-29T02:38:56;11.00;99.90
15834;DHT22;8017;50.812;4.934;2022-12-29T02:42:05;10.80;99.90
15834;DHT22;8017;50.812;4.934;2022-12-29T02:45:15;10.80;99.90
15834;DHT22;8017;50.812;4.934;2022-12-29T02:48:25;10.80;99.90
15834;DHT22;8017;50.812;4.934;2022-12-29T02:51:33;10.80;99.90
15834;DHT22;8017;50.812;4.934;2022-12-29T02:54:36;10.80;99.90
15834;DHT22;8017;50.812;4.934;2022-12-29T02:57:44;10.80;99.90
15834;DHT22;8017;50.812;4.934;2022-12-29T03:01:00;10.90;99.90
15834;DHT22;8017;50.812;4.934;2022-12-29T03:04:19;10.90;99.90
15834;DHT22;8017;50.812;4.934;2022-12-29T03:07:31;10.90;99.90
15834;DHT22;8017;50.812;4.934;2022-12-29T03:10:41;10.90;99.90
15834;DHT22;8017;50.812;4.934;2022-12-29T03:13:49;10.90;99.90
15834;DHT22;8017;50.812;4.934;2022-12-29T03:17:18;10.90;99.90
15834;DHT22;8017;50.812;4.934;2022-12-29T03:20:26;10.90;99.90
15834;DHT22;8017;50.812;4.934;2022-12-29T03:23:30;11.00;99.90
15834;DHT22;8017;50.812;4.934;2022-12-29T03:26:33;11.00;99.90
15834;DHT22;8017;50.812;4.934;2022-12-29T03:29:40;11.10;99.90
15834;DHT22;8017;50.812;4.934;2022-12-29T03:32:46;11.10;99.90
15834;DHT22;8017;50.812;4.934;2022-12-29T03:35:52;11.20;99.90
15834;DHT22;8017;50.812;4.934;2022-12-29T03:38:59;11.20;99.90
15834;DHT22;8017;50.812;4.934;2022-12-29T03:42:05;11.10;99.90
15834;DHT22;8017;50.812;4.934;2022-12-29T03:45:11;10.90;99.90
15834;DHT22;8017;50.812;4.934;2022-12-29T03:48:12;10.80;99.90
15834;DHT22;8017;50.812;4.934;2022-12-29T03:51:16;10.80;99.90
15834;DHT22;8017;50.812;4.934;2022-12-29T03:54:18;10.70;99.90
15834;DHT22;8017;50.812;4.934;2022-12-29T03:57:19;10.70;99.90
15834;DHT22;8017;50.812;4.934;2022-12-29T04:00:21;10.80;99.90
15834;DHT22;8017;50.812;4.934;2022-12-29T04:03:23;10.70;99.90
15834;DHT22;8017;50.812;4.934;2022-12-29T04:06:26;10.70;99.90
15834;DHT22;8017;50.812;4.934;2022-12-29T04:09:28;10.60;99.90
15834;DHT22;8017;50.812;4.934;2022-12-29T04:12:31;10.50;99.90
15834;DHT22;8017;50.812;4.934;2022-12-29T04:15:34;10.50;99.90
15834;DHT22;8017;50.812;4.934;2022-12-29T04:18:36;10.50;99.90
15834;DHT22;8017;50.812;4.934;2022-12-29T04:21:40;10.50;99.90
15834;DHT22;8017;50.812;4.934;2022-12-29T04:24:42;10.60;99.90
15834;DHT22;8017;50.812;4.934;2022-12-29T04:27:43;10.50;99.90
15834;DHT22;8017;50.812;4.934;2022-12-29T04:30:46;10.50;99.90
15834;DHT22;8017;50.812;4.934;2022-12-29T04:33:48;10.40;99.90
15834;DHT22;8017;50.812;4.934;2022-12-29T04:36:51;10.30;99.90
15834;DHT22;8017;50.812;4.934;2022-12-29T04:39:53;10.20;99.90
15834;DHT22;8017;50.812;4.934;2022-12-29T04:42:55;10.10;99.90
15834;DHT22;8017;50.812;4.934;2022-12-29T04:45:57;10.10;99.90
15834;DHT22;8017;50.812;4.934;2022-12-29T04:48:59;10.00;99.90
15834;DHT22;8017;50.812;4.934;2022-12-29T04:52:06;10.00;99.90
15834;DHT22;8017;50.812;4.934;2022-12-29T04:55:08;10.00;99.90
15834;DHT22;8017;50.812;4.934;2022-12-29T04:58:10;10.00;99.90
15834;DHT22;8017;50.812;4.934;2022-12-29T05:01:12;10.10;99.90
15834;DHT22;8017;50.812;4.934;2022-12-29T05:04:14;10.20;99.90
15834;DHT22;8017;50.812;4.934;2022-12-29T05:07:18;10.10;99.90
15834;DHT22;8017;50.812;4.934;2022-12-29T05:10:20;10.10;99.90
15834;DHT22;8017;50.812;4.934;2022-12-29T05:13:22;10.20;99.90
15834;DHT22;8017;50.812;4.934;2022-12-29T05:16:23;10.30;99.90
15834;DHT22;8017;50.812;4.934;2022-12-29T05:19:25;10.40;99.90
15834;DHT22;8017;50.812;4.934;2022-12-29T05:22:29;10.50;99.90
15834;DHT22;8017;50.812;4.934;2022-12-29T05:25:30;10.50;99.90
15834;DHT22;8017;50.812;4.934;2022-12-29T05:28:32;10.50;99.90
15834;DHT22;8017;50.812;4.934;2022-12-29T05:31:34;10.50;99.90
15834;DHT22;8017;50.812;4.934;2022-12-29T05:34:36;10.60;99.90
15834;DHT22;8017;50.812;4.934;2022-12-29T05:37:39;10.70;99.90
15834;DHT22;8017;50.812;4.934;2022-12-29T05:40:42;10.70;99.90
15834;DHT22;8017;50.812;4.934;2022-12-29T05:43:44;10.80;99.90
15834;DHT22;8017;50.812;4.934;2022-12-29T05:46:46;10.80;99.90
15834;DHT22;8017;50.812;4.934;2022-12-29T05:49:48;10.70;99.90
15834;DHT22;8017;50.812;4.934;2022-12-29T05:52:51;10.60;99.90
15834;DHT22;8017;50.812;4.934;2022-12-29T05:55:53;10.50;99.90
15834;DHT22;8017;50.812;4.934;2022-12-29T05:58:55;10.40;99.90
15834;DHT22;8017;50.812;4.934;2022-12-29T06:01:57;10.40;99.90
15834;DHT22;8017;50.812;4.934;2022-12-29T06:04:59;10.50;99.90
15834;DHT22;8017;50.812;4.934;2022-12-29T06:08:02;10.50;99.90
15834;DHT22;8017;50.812;4.934;2022-12-29T06:11:04;10.50;99.90
15834;DHT22;8017;50.812;4.934;2022-12-29T06:14:06;10.50;99.90
15834;DHT22;8017;50.812;4.934;2022-12-29T06:17:08;10.50;99.90
15834;DHT22;8017;50.812;4.934;2022-12-29T06:20:10;10.50;99.90
15834;DHT22;8017;50.812;4.934;2022-12-29T06:23:14;10.40;99.90
15834;DHT22;8017;50.812;4.934;2022-12-29T06:26:17;10.40;99.90
15834;DHT22;8017;50.812;4.934;2022-12-29T06:29:18;10.40;99.90
15834;DHT22;8017;50.812;4.934;2022-12-29T06:32:21;10.50;99.90
15834;DHT22;8017;50.812;4.934;2022-12-29T06:35:23;10.50;99.90
15834;DHT22;8017;50.812;4.934;2022-12-29T06:38:26;10.50;99.90
15834;DHT22;8017;50.812;4.934;2022-12-29T06:41:28;10.50;99.90
15834;DHT22;8017;50.812;4.934;2022-12-29T06:44:29;10.40;99.90
15834;DHT22;8017;50.812;4.934;2022-12-29T06:47:31;10.50;99.90
15834;DHT22;8017;50.812;4.934;2022-12-29T06:50:33;10.50;99.90
15834;DHT22;8017;50.812;4.934;2022-12-29T06:53:36;10.60;99.90
15834;DHT22;8017;50.812;4.934;2022-12-29T06:56:38;10.60;99.90
15834;DHT22;8017;50.812;4.934;2022-12-29T06:59:40;10.70;99.90
15834;DHT22;8017;50.812;4.934;2022-12-29T07:02:42;10.60;99.90
15834;DHT22;8017;50.812;4.934;2022-12-29T07:05:44;10.40;99.90
15834;DHT22;8017;50.812;4.934;2022-12-29T07:08:47;10.40;99.90
15834;DHT22;8017;50.812;4.934;2022-12-29T07:11:49;10.40;99.90
15834;DHT22;8017;50.812;4.934;2022-12-29T07:14:51;10.50;99.90
15834;DHT22;8017;50.812;4.934;2022-12-29T07:17:53;10.40;99.90
15834;DHT22;8017;50.812;4.934;2022-12-29T07:20:55;10.30;99.90
15834;DHT22;8017;50.812;4.934;2022-12-29T07:23:58;10.10;99.90
15834;DHT22;8017;50.812;4.934;2022-12-29T07:27:00;9.90;99.90
15834;DHT22;8017;50.812;4.934;2022-12-29T07:30:02;9.80;99.90
15834;DHT22;8017;50.812;4.934;2022-12-29T07:33:04;9.90;99.90
15834;DHT22;8017;50.812;4.934;2022-12-29T07:36:07;10.00;99.90
15834;DHT22;8017;50.812;4.934;2022-12-29T07:39:10;10.10;99.90
15834;DHT22;8017;50.812;4.934;2022-12-29T07:42:12;10.20;99.90
15834;DHT22;8017;50.812;4.934;2022-12-29T07:45:14;10.20;99.90
15834;DHT22;8017;50.812;4.934;2022-12-29T07:48:16;10.10;99.90
15834;DHT22;8017;50.812;4.934;2022-12-29T07:51:18;10.00;99.90
15834;DHT22;8017;50.812;4.934;2022-12-29T07:54:21;9.90;99.90
15834;DHT22;8017;50.812;4.934;2022-12-29T07:57:23;9.80;99.90
15834;DHT22;8017;50.812;4.934;2022-12-29T08:00:25;10.00;99.90
15834;DHT22;8017;50.812;4.934;2022-12-29T08:03:27;10.10;99.90
15834;DHT22;8017;50.812;4.934;2022-12-29T08:06:29;10.10;99.90
15834;DHT22;8017;50.812;4.934;2022-12-29T08:09:33;10.00;99.90
15834;DHT22;8017;50.812;4.934;2022-12-29T08:12:35;10.10;99.90
15834;DHT22;8017;50.812;4.934;2022-12-29T08:15:37;10.10;99.90
15834;DHT22;8017;50.812;4.934;2022-12-29T08:18:39;10.10;99.90
15834;DHT22;8017;50.812;4.934;2022-12-29T08:21:41;10.20;99.90
15834;DHT22;8017;50.812;4.934;2022-12-29T08:24:44;10.10;99.90
15834;DHT22;8017;50.812;4.934;2022-12-29T08:27:46;10.10;99.90
15834;DHT22;8017;50.812;4.934;2022-12-29T08:30:48;10.10;99.90
15834;DHT22;8017;50.812;4.934;2022-12-29T08:33:50;10.20;99.90
15834;DHT22;8017;50.812;4.934;2022-12-29T08:36:52;10.20;99.90
15834;DHT22;8017;50.812;4.934;2022-12-29T08:39:55;10.20;99.90
15834;DHT22;8017;50.812;4.934;2022-12-29T08:42:58;10.20;99.90
15834;DHT22;8017;50.812;4.934;2022-12-29T08:46:00;10.10;99.90
15834;DHT22;8017;50.812;4.934;2022-12-29T08:49:02;10.10;99.90
15834;DHT22;8017;50.812;4.934;2022-12-29T08:52:04;10.10;99.90
15834;DHT22;8017;50.812;4.934;2022-12-29T08:55:08;10.20;99.90
15834;DHT22;8017;50.812;4.934;2022-12-29T08:58:10;10.20;99.90
15834;DHT22;8017;50.812;4.934;2022-12-29T09:01:14;10.20;99.90
15834;DHT22;8017;50.812;4.934;2022-12-29T09:04:16;10.20;99.90
15834;DHT22;8017;50.812;4.934;2022-12-29T09:07:18;10.10;99.90
15834;DHT22;8017;50.812;4.934;2022-12-29T09:10:22;10.10;99.90
15834;DHT22;8017;50.812;4.934;2022-12-29T09:13:24;10.00;99.90
15834;DHT22;8017;50.812;4.934;2022-12-29T09:16:25;9.90;99.90
15834;DHT22;8017;50.812;4.934;2022-12-29T09:19:28;9.90;99.90
15834;DHT22;8017;50.812;4.934;2022-12-29T09:22:30;9.90;99.90
15834;DHT22;8017;50.812;4.934;2022-12-29T09:25:33;9.90;99.90
15834;DHT22;8017;50.812;4.934;2022-12-29T09:28:35;10.00;99.90
15834;DHT22;8017;50.812;4.934;2022-12-29T09:31:37;10.00;99.90
15834;DHT22;8017;50.812;4.934;2022-12-29T09:34:39;10.10;99.90
15834;DHT22;8017;50.812;4.934;2022-12-29T09:37:41;10.00;99.90
15834;DHT22;8017;50.812;4.934;2022-12-29T09:40:49;10.00;99.90
15834;DHT22;8017;50.812;4.934;2022-12-29T09:44:05;9.90;99.90
15834;DHT22;8017;50.812;4.934;2022-12-29T09:47:09;9.90;99.90
15834;DHT22;8017;50.812;4.934;2022-12-29T09:50:20;10.10;99.90
15834;DHT22;8017;50.812;4.934;2022-12-29T09:53:28;10.10;99.90
15834;DHT22;8017;50.812;4.934;2022-12-29T09:56:32;10.10;99.90
15834;DHT22;8017;50.812;4.934;2022-12-29T09:59:38;10.10;99.90
15834;DHT22;8017;50.812;4.934;2022-12-29T10:02:43;10.10;99.90
15834;DHT22;8017;50.812;4.934;2022-12-29T10:05:51;10.10;99.90
15834;DHT22;8017;50.812;4.934;2022-12-29T10:09:00;10.10;99.90
15834;DHT22;8017;50.812;4.934;2022-12-29T10:12:12;10.10;99.90
15834;DHT22;8017;50.812;4.934;2022-12-29T10:15:31;10.00;99.90
15834;DHT22;8017;50.812;4.934;2022-12-29T10:18:59;10.00;99.90
15834;DHT22;8017;50.812;4.934;2022-12-29T10:22:13;10.10;99.90
15834;DHT22;8017;50.812;4.934;2022-12-29T10:25:22;10.10;99.90
15834;DHT22;8017;50.812;4.934;2022-12-29T10:28:37;10.20;99.90
15834;DHT22;8017;50.812;4.934;2022-12-29T10:31:44;10.30;99.90
15834;DHT22;8017;50.812;4.934;2022-12-29T10:34:52;10.40;99.90
15834;DHT22;8017;50.812;4.934;2022-12-29T10:37:59;10.50;99.90
15834;DHT22;8017;50.812;4.934;2022-12-29T10:41:08;10.70;99.90
15834;DHT22;8017;50.812;4.934;2022-12-29T10:44:16;10.80;99.90
15834;DHT22;8017;50.812;4.934;2022-12-29T10:47:21;10.80;99.90
15834;DHT22;8017;50.812;4.934;2022-12-29T10:50:24;10.80;99.90
15834;DHT22;8017;50.812;4.934;2022-12-29T10:53:33;10.80;99.90
15834;DHT22;8017;50.812;4.934;2022-12-29T10:56:40;11.00;99.90
15834;DHT22;8017;50.812;4.934;2022-12-29T10:59:46;11.20;99.90
15834;DHT22;8017;50.812;4.934;2022-12-29T11:06:30;11.30;99.90
15834;DHT22;8017;50.812;4.934;2022-12-29T11:09:36;11.30;99.90
15834;DHT22;8017;50.812;4.934;2022-12-29T11:12:40;11.30;99.90
15834;DHT22;8017;50.812;4.934;2022-12-29T11:15:44;11.20;99.90
15834;DHT22;8017;50.812;4.934;2022-12-29T11:18:47;11.20;99.90
15834;DHT22;8017;50.812;4.934;2022-12-29T11:21:49;11.10;99.90
15834;DHT22;8017;50.812;4.934;2022-12-29T11:24:53;11.10;99.90
15834;DHT22;8017;50.812;4.934;2022-12-29T11:27:56;11.00;99.90
15834;DHT22;8017;50.812;4.934;2022-12-29T11:31:01;11.00;99.90
15834;DHT22;8017;50.812;4.934;2022-12-29T11:34:06;11.00;99.90
15834;DHT22;8017;50.812;4.934;2022-12-29T11:37:12;11.00;99.90
15834;DHT22;8017;50.812;4.934;2022-12-29T11:40:17;11.00;99.90
15834;DHT22;8017;50.812;4.934;2022-12-29T11:43:23;10.90;99.90
15834;DHT22;8017;50.812;4.934;2022-12-29T11:46:30;11.00;99.90
15834;DHT22;8017;50.812;4.934;2022-12-29T11:49:33;11.00;99.90
15834;DHT22;8017;50.812;4.934;2022-12-29T11:52:36;11.00;99.90
15834;DHT22;8017;50.812;4.934;2022-12-29T11:55:40;11.00;99.90
15834;DHT22;8017;50.812;4.934;2022-12-29T11:58:42;11.00;99.90
15834;DHT22;8017;50.812;4.934;2022-12-29T12:01:45;11.10;99.90
15834;DHT22;8017;50.812;4.934;2022-12-29T12:04:53;11.20;99.90
15834;DHT22;8017;50.812;4.934;2022-12-29T12:08:03;11.20;99.90
15834;DHT22;8017;50.812;4.934;2022-12-29T12:11:10;11.10;99.90
15834;DHT22;8017;50.812;4.934;2022-12-29T12:14:17;11.00;99.90
15834;DHT22;8017;50.812;4.934;2022-12-29T12:17:24;11.10;99.90
15834;DHT22;8017;50.812;4.934;2022-12-29T12:20:36;11.10;99.90
15834;DHT22;8017;50.812;4.934;2022-12-29T12:23:47;11.10;99.90
15834;DHT22;8017;50.812;4.934;2022-12-29T12:27:01;11.20;99.90
15834;DHT22;8017;50.812;4.934;2022-12-29T12:30:07;11.20;99.90
15834;DHT22;8017;50.812;4.934;2022-12-29T12:33:18;11.30;99.90
15834;DHT22;8017;50.812;4.934;2022-12-29T12:36:39;11.20;99.90
15834;DHT22;8017;50.812;4.934;2022-12-29T12:39:49;11.30;99.90
15834;DHT22;8017;50.812;4.934;2022-12-29T12:43:06;11.30;99.90
15834;DHT22;8017;50.812;4.934;2022-12-29T12:46:51;11.20;99.90
15834;DHT22;8017;50.812;4.934;2022-12-29T12:50:26;11.30;99.90
15834;DHT22;8017;50.812;4.934;2022-12-29T12:53:51;11.30;99.90
15834;DHT22;8017;50.812;4.934;2022-12-29T12:57:07;11.20;99.90
15834;DHT22;8017;50.812;4.934;2022-12-29T13:00:14;11.20;99.90
15834;DHT22;8017;50.812;4.934;2022-12-29T13:03:31;11.10;99.90
15834;DHT22;8017;50.812;4.934;2022-12-29T13:06:39;11.00;99.90
15834;DHT22;8017;50.812;4.934;2022-12-29T13:09:57;11.10;99.90
15834;DHT22;8017;50.812;4.934;2022-12-29T13:13:20;11.10;99.90
15834;DHT22;8017;50.812;4.934;2022-12-29T13:16:31;11.20;99.90
15834;DHT22;8017;50.812;4.934;2022-12-29T13:19:41;11.10;99.90
15834;DHT22;8017;50.812;4.934;2022-12-29T13:22:50;11.10;99.90
15834;DHT22;8017;50.812;4.934;2022-12-29T13:26:01;11.10;99.90
15834;DHT22;8017;50.812;4.934;2022-12-29T13:29:14;11.20;99.90
15834;DHT22;8017;50.812;4.934;2022-12-29T13:32:25;11.20;99.90
15834;DHT22;8017;50.812;4.934;2022-12-29T13:35:44;11.10;99.90
15834;DHT22;8017;50.812;4.934;2022-12-29T13:39:01;11.00;99.90
15834;DHT22;8017;50.812;4.934;2022-12-29T13:42:04;11.00;99.90
15834;DHT22;8017;50.812;4.934;2022-12-29T13:45:11;10.90;99.90
15834;DHT22;8017;50.812;4.934;2022-12-29T13:48:18;10.80;99.90
15834;DHT22;8017;50.812;4.934;2022-12-29T13:51:23;10.70;99.90
15834;DHT22;8017;50.812;4.934;2022-12-29T13:54:34;10.70;99.90
15834;DHT22;8017;50.812;4.934;2022-12-29T13:57:47;10.60;99.90
15834;DHT22;8017;50.812;4.934;2022-12-29T14:00:55;10.50;99.90
15834;DHT22;8017;50.812;4.934;2022-12-29T14:04:01;10.30;99.90
15834;DHT22;8017;50.812;4.934;2022-12-29T14:07:05;10.20;99.90
15834;DHT22;8017;50.812;4.934;2022-12-29T14:10:28;9.90;99.90
15834;DHT22;8017;50.812;4.934;2022-12-29T14:13:30;9.80;99.90
15834;DHT22;8017;50.812;4.934;2022-12-29T14:16:33;9.70;99.90
15834;DHT22;8017;50.812;4.934;2022-12-29T14:19:39;9.60;99.90
15834;DHT22;8017;50.812;4.934;2022-12-29T14:22:55;9.70;99.90
15834;DHT22;8017;50.812;4.934;2022-12-29T14:26:10;9.70;99.90
15834;DHT22;8017;50.812;4.934;2022-12-29T14:29:41;9.70;99.90
15834;DHT22;8017;50.812;4.934;2022-12-29T14:32:39;9.70;99.90
15834;DHT22;8017;50.812;4.934;2022-12-29T14:35:43;9.60;99.90
15834;DHT22;8017;50.812;4.934;2022-12-29T14:38:47;9.40;99.90
15834;DHT22;8017;50.812;4.934;2022-12-29T14:41:59;9.50;99.90
15834;DHT22;8017;50.812;4.934;2022-12-29T14:45:06;9.60;99.90
15834;DHT22;8017;50.812;4.934;2022-12-29T14:48:35;9.70;99.90
15834;DHT22;8017;50.812;4.934;2022-12-29T14:51:38;9.80;99.90
15834;DHT22;8017;50.812;4.934;2022-12-29T14:54:50;9.80;99.90
15834;DHT22;8017;50.812;4.934;2022-12-29T14:57:58;9.90;99.90
15834;DHT22;8017;50.812;4.934;2022-12-29T15:01:02;10.00;99.90
15834;DHT22;8017;50.812;4.934;2022-12-29T15:04:13;9.90;99.90
15834;DHT22;8017;50.812;4.934;2022-12-29T15:07:18;9.80;99.90
15834;DHT22;8017;50.812;4.934;2022-12-29T15:10:21;9.80;99.90
15834;DHT22;8017;50.812;4.934;2022-12-29T15:13:34;9.80;99.90
15834;DHT22;8017;50.812;4.934;2022-12-29T15:16:36;9.60;99.90
15834;DHT22;8017;50.812;4.934;2022-12-29T15:19:38;9.30;99.90
15834;DHT22;8017;50.812;4.934;2022-12-29T15:22:43;9.10;99.90
15834;DHT22;8017;50.812;4.934;2022-12-29T15:25:49;8.90;99.90
15834;DHT22;8017;50.812;4.934;2022-12-29T15:28:53;8.90;99.90
15834;DHT22;8017;50.812;4.934;2022-12-29T15:31:59;8.80;99.90
15834;DHT22;8017;50.812;4.934;2022-12-29T15:35:22;8.70;99.90
15834;DHT22;8017;50.812;4.934;2022-12-29T15:38:27;8.60;99.90
15834;DHT22;8017;50.812;4.934;2022-12-29T15:41:32;8.60;99.90
15834;DHT22;8017;50.812;4.934;2022-12-29T15:44:58;8.60;99.90
15834;DHT22;8017;50.812;4.934;2022-12-29T15:48:00;8.60;99.90
15834;DHT22;8017;50.812;4.934;2022-12-29T15:51:02;8.70;99.90
15834;DHT22;8017;50.812;4.934;2022-12-29T15:54:05;8.80;99.90
15834;DHT22;8017;50.812;4.934;2022-12-29T15:57:21;8.90;99.90
15834;DHT22;8017;50.812;4.934;2022-12-29T16:00:27;8.90;99.90
15834;DHT22;8017;50.812;4.934;2022-12-29T16:03:32;8.70;99.90
15834;DHT22;8017;50.812;4.934;2022-12-29T16:06:36;8.50;99.90
15834;DHT22;8017;50.812;4.934;2022-12-29T16:09:42;8.30;99.90
15834;DHT22;8017;50.812;4.934;2022-12-29T16:12:45;8.10;99.90
15834;DHT22;8017;50.812;4.934;2022-12-29T16:15:49;8.00;99.90
15834;DHT22;8017;50.812;4.934;2022-12-29T16:18:54;7.90;99.90
15834;DHT22;8017;50.812;4.934;2022-12-29T16:22:00;7.80;99.90
15834;DHT22;8017;50.812;4.934;2022-12-29T16:25:12;7.80;99.90
15834;DHT22;8017;50.812;4.934;2022-12-29T16:28:20;7.70;99.90
15834;DHT22;8017;50.812;4.934;2022-12-29T16:31:28;7.70;99.90
15834;DHT22;8017;50.812;4.934;2022-12-29T16:34:43;7.70;99.90
15834;DHT22;8017;50.812;4.934;2022-12-29T16:37:47;7.60;99.90
15834;DHT22;8017;50.812;4.934;2022-12-29T16:40:52;7.50;99.90
15834;DHT22;8017;50.812;4.934;2022-12-29T16:44:12;7.50;99.90
15834;DHT22;8017;50.812;4.934;2022-12-29T16:47:20;7.40;99.90
15834;DHT22;8017;50.812;4.934;2022-12-29T16:50:22;7.40;99.90
15834;DHT22;8017;50.812;4.934;2022-12-29T16:53:31;7.30;99.90
15834;DHT22;8017;50.812;4.934;2022-12-29T16:56:35;7.30;99.90
15834;DHT22;8017;50.812;4.934;2022-12-29T16:59:40;7.40;99.90
15834;DHT22;8017;50.812;4.934;2022-12-29T17:02:45;7.50;99.90
15834;DHT22;8017;50.812;4.934;2022-12-29T17:05:47;7.60;99.90
15834;DHT22;8017;50.812;4.934;2022-12-29T17:08:50;7.60;99.90
15834;DHT22;8017;50.812;4.934;2022-12-29T17:11:54;7.70;99.90
15834;DHT22;8017;50.812;4.934;2022-12-29T17:14:59;7.70;99.90
15834;DHT22;8017;50.812;4.934;2022-12-29T17:18:03;7.80;99.90
15834;DHT22;8017;50.812;4.934;2022-12-29T17:21:05;7.80;99.90
15834;DHT22;8017;50.812;4.934;2022-12-29T17:24:14;7.80;99.90
15834;DHT22;8017;50.812;4.934;2022-12-29T17:27:23;7.70;99.90
15834;DHT22;8017;50.812;4.934;2022-12-29T17:30:27;7.70;99.90
15834;DHT22;8017;50.812;4.934;2022-12-29T17:33:34;7.70;99.90
15834;DHT22;8017;50.812;4.934;2022-12-29T17:36:36;7.60;99.90
15834;DHT22;8017;50.812;4.934;2022-12-29T17:39:38;7.50;99.90
15834;DHT22;8017;50.812;4.934;2022-12-29T17:42:43;7.40;99.90
15834;DHT22;8017;50.812;4.934;2022-12-29T17:45:48;7.30;99.90
15834;DHT22;8017;50.812;4.934;2022-12-29T17:48:52;7.30;99.90
15834;DHT22;8017;50.812;4.934;2022-12-29T17:51:54;7.20;99.90
15834;DHT22;8017;50.812;4.934;2022-12-29T17:54:57;7.20;99.90
15834;DHT22;8017;50.812;4.934;2022-12-29T17:58:00;7.20;99.90
15834;DHT22;8017;50.812;4.934;2022-12-29T18:01:02;7.20;99.90
15834;DHT22;8017;50.812;4.934;2022-12-29T18:04:10;7.20;99.90
15834;DHT22;8017;50.812;4.934;2022-12-29T18:07:13;7.10;99.90
15834;DHT22;8017;50.812;4.934;2022-12-29T18:10:15;7.00;99.90
15834;DHT22;8017;50.812;4.934;2022-12-29T18:13:19;7.00;99.90
15834;DHT22;8017;50.812;4.934;2022-12-29T18:16:22;7.00;99.90
15834;DHT22;8017;50.812;4.934;2022-12-29T18:19:25;6.90;99.90
15834;DHT22;8017;50.812;4.934;2022-12-29T18:22:27;6.90;99.90
15834;DHT22;8017;50.812;4.934;2022-12-29T18:25:37;6.90;99.90
15834;DHT22;8017;50.812;4.934;2022-12-29T18:28:41;6.80;99.90
15834;DHT22;8017;50.812;4.934;2022-12-29T18:31:44;6.80;99.90
15834;DHT22;8017;50.812;4.934;2022-12-29T18:34:47;6.80;99.90
15834;DHT22;8017;50.812;4.934;2022-12-29T18:37:49;6.80;99.90
15834;DHT22;8017;50.812;4.934;2022-12-29T18:40:51;6.80;99.90
15834;DHT22;8017;50.812;4.934;2022-12-29T18:43:53;6.80;99.90
15834;DHT22;8017;50.812;4.934;2022-12-29T18:46:58;6.80;99.90
15834;DHT22;8017;50.812;4.934;2022-12-29T18:50:02;6.90;99.90
15834;DHT22;8017;50.812;4.934;2022-12-29T18:53:04;6.90;99.90
15834;DHT22;8017;50.812;4.934;2022-12-29T18:56:06;6.90;99.90
15834;DHT22;8017;50.812;4.934;2022-12-29T18:59:09;6.90;99.90
15834;DHT22;8017;50.812;4.934;2022-12-29T19:02:15;6.90;99.90
15834;DHT22;8017;50.812;4.934;2022-12-29T19:05:21;7.00;99.90
15834;DHT22;8017;50.812;4.934;2022-12-29T19:08:23;7.10;99.90
15834;DHT22;8017;50.812;4.934;2022-12-29T19:11:26;7.10;99.90
15834;DHT22;8017;50.812;4.934;2022-12-29T19:14:28;7.10;99.90
15834;DHT22;8017;50.812;4.934;2022-12-29T19:17:30;7.20;99.90
15834;DHT22;8017;50.812;4.934;2022-12-29T19:20:35;7.20;99.90
15834;DHT22;8017;50.812;4.934;2022-12-29T19:23:38;7.30;99.90
15834;DHT22;8017;50.812;4.934;2022-12-29T19:26:40;7.40;99.90
15834;DHT22;8017;50.812;4.934;2022-12-29T19:29:42;7.40;99.90
15834;DHT22;8017;50.812;4.934;2022-12-29T19:32:47;7.40;99.90
15834;DHT22;8017;50.812;4.934;2022-12-29T19:35:51;7.30;99.90
15834;DHT22;8017;50.812;4.934;2022-12-29T19:38:53;7.30;99.90
15834;DHT22;8017;50.812;4.934;2022-12-29T19:41:55;7.30;99.90
15834;DHT22;8017;50.812;4.934;2022-12-29T19:44:57;7.30;99.90
15834;DHT22;8017;50.812;4.934;2022-12-29T19:47:59;7.30;99.90
15834;DHT22;8017;50.812;4.934;2022-12-29T19:51:07;7.30;99.90
15834;DHT22;8017;50.812;4.934;2022-12-29T19:54:10;7.30;99.90
15834;DHT22;8017;50.812;4.934;2022-12-29T19:57:12;7.20;99.90
15834;DHT22;8017;50.812;4.934;2022-12-29T20:00:14;7.20;99.90
15834;DHT22;8017;50.812;4.934;2022-12-29T20:03:17;7.20;99.90
15834;DHT22;8017;50.812;4.934;2022-12-29T20:06:20;7.10;99.90